Time;durP1;ratioP1;P1;durP2;ratioP2;P2;SDS_P1;SDS_P2;PMS_P1;PMS_P2;Temp;Humidity;BMP_temperature;BMP_pressure;BME280_temperature;BME280_humidity;BME280_pressure;Samples;Min_cycle;Max_cycle;Signal;HPM_P1;HPM_P2
2020/12/16 00:00:09;;;;;;;26.17;13.02;;;;;;;3.35;91.23;97698.34;4984838;28;20117;-61
2020/12/16 00:02:39;;;;;;;21.95;12.63;;;;;;;3.94;91.13;97793.97;4984866;28;20975;-62
2020/12/16 00:05:07;;;;;;;26.60;12.52;;;;;;;3.99;91.68;97798.50;4983434;28;20408;-62
2020/12/16 00:07:33;;;;;;;33.22;15.73;;;;;;;3.45;90.48;97692.66;4985258;28;20400;-62
2020/12/16 00:09:58;;;;;;;29.30;15.38;;;;;;;3.97;90.17;97808.97;4984660;28;20027;-62
2020/12/16 00:12:25;;;;;;;41.38;19.63;;;;;;;3.91;89.43;97783.63;4985710;28;20034;-61
2020/12/16 00:14:51;;;;;;;38.97;17.98;;;;;;;4.07;89.73;97804.09;5003507;28;20037;-62
2020/12/16 00:17:16;;;;;;;38.97;19.02;;;;;;;4.15;88.38;97799.78;4988223;28;20517;-62
2020/12/16 00:19:42;;;;;;;38.83;19.45;;;;;;;4.10;88.26;97808.94;4986902;28;20042;-63
2020/12/16 00:22:08;;;;;;;37.70;18.88;;;;;;;4.11;88.22;97813.28;4988772;28;20038;-61
2020/12/16 00:24:34;;;;;;;37.50;18.33;;;;;;;4.06;89.16;97807.91;4988858;28;20030;-62
2020/12/16 00:26:59;;;;;;;32.00;15.93;;;;;;;4.02;89.53;97814.34;4988408;28;20041;-62
2020/12/16 00:29:25;;;;;;;20.55;9.70;;;;;;;3.99;89.97;97810.28;4988225;28;20085;-62
2020/12/16 00:31:50;;;;;;;16.75;9.90;;;;;;;4.13;88.75;97805.56;4986485;28;20477;-62
2020/12/16 00:34:16;;;;;;;19.15;10.32;;;;;;;4.14;87.97;97809.94;4986554;28;20042;-63
2020/12/16 00:36:42;;;;;;;20.40;11.18;;;;;;;2.96;89.28;97632.44;4988142;28;20041;-62
2020/12/16 00:39:09;;;;;;;16.73;8.55;;;;;;;4.15;88.30;97811.56;4987950;28;20425;-63
2020/12/16 00:41:34;;;;;;;18.58;9.18;;;;;;;4.07;87.72;97815.03;4987888;28;20513;-62
2020/12/16 00:44:00;;;;;;;16.65;9.27;;;;;;;4.08;87.75;97810.34;4988098;28;20038;-62
2020/12/16 00:46:26;;;;;;;15.65;7.68;;;;;;;3.99;88.15;97824.00;4987826;28;20045;-62
2020/12/16 00:48:52;;;;;;;22.15;10.27;;;;;;;3.88;88.96;97800.69;4987815;28;20030;-62
2020/12/16 00:51:17;;;;;;;16.90;9.43;;;;;;;4.11;89.23;97810.56;4985963;28;20080;-64
2020/12/16 00:53:44;;;;;;;20.25;10.00;;;;;;;4.12;88.69;97806.72;4987468;28;20029;-62
2020/12/16 00:56:09;;;;;;;15.95;8.25;;;;;;;3.67;89.58;97733.75;4988086;28;20110;-62
2020/12/16 00:58:35;;;;;;;16.88;8.60;;;;;;;4.16;89.82;97810.44;4987281;28;20498;-63
2020/12/16 01:01:00;;;;;;;18.83;10.98;;;;;;;3.56;89.31;97715.94;4985748;28;20038;-63
2020/12/16 01:03:26;;;;;;;21.90;10.70;;;;;;;4.11;89.24;97785.09;4987705;28;20053;-63
2020/12/16 01:05:51;;;;;;;21.58;10.85;;;;;;;3.95;88.99;97762.69;4987465;28;20284;-63
2020/12/16 01:08:17;;;;;;;21.20;12.23;;;;;;;4.26;89.46;97807.47;4987087;28;20026;-63
2020/12/16 01:10:43;;;;;;;24.00;13.25;;;;;;;4.26;89.20;97807.47;4987107;28;20080;-63
2020/12/16 01:13:08;;;;;;;25.67;14.00;;;;;;;4.26;90.03;97807.47;4987562;28;20417;-63
2020/12/16 01:15:33;;;;;;;27.88;13.45;;;;;;;4.28;90.61;97802.44;4987277;28;20038;-64
2020/12/16 01:17:59;;;;;;;29.83;15.98;;;;;;;4.41;89.85;97812.56;4987435;28;20048;-63
2020/12/16 01:20:24;;;;;;;37.35;17.38;;;;;;;4.30;90.05;97813.94;4987353;28;20030;-63
2020/12/16 01:22:50;;;;;;;102.45;42.33;;;;;;;3.80;89.91;97711.00;4987279;28;20038;-64
2020/12/16 01:25:20;;;;;;;63.30;28.25;;;;;;;4.04;88.91;97744.41;4986012;28;20030;-63
2020/12/16 01:27:51;;;;;;;37.35;17.67;;;;;;;4.44;88.90;97820.16;4987117;28;20525;-64
2020/12/16 01:30:16;;;;;;;25.42;12.38;;;;;;;4.44;89.63;97803.69;4987301;28;20058;-63
2020/12/16 01:32:42;;;;;;;21.60;11.18;;;;;;;4.35;90.17;97800.09;4985361;28;20582;-63
2020/12/16 01:35:08;;;;;;;17.92;10.10;;;;;;;4.40;90.95;97812.88;4987303;28;20316;-63
2020/12/16 01:37:35;;;;;;;17.27;8.90;;;;;;;4.57;88.52;97805.56;4987359;28;20045;-63
2020/12/16 01:40:01;;;;;;;16.67;9.57;;;;;;;4.32;89.34;97784.28;4986884;28;20293;-63
2020/12/16 01:42:26;;;;;;;18.30;10.55;;;;;;;4.50;90.18;97796.19;4986814;28;20394;-63
2020/12/16 01:44:52;;;;;;;19.35;10.20;;;;;;;3.42;90.03;97638.50;4986731;28;20046;-63
2020/12/16 01:47:18;;;;;;;18.45;10.05;;;;;;;4.53;89.83;97801.84;4986582;28;20553;-63
2020/12/16 01:49:44;;;;;;;15.18;9.30;;;;;;;4.12;89.95;97743.66;4984975;28;20096;-63
2020/12/16 01:52:14;;;;;;;15.98;9.90;;;;;;;4.59;89.28;97817.06;4986236;28;20061;-63
2020/12/16 01:54:40;;;;;;;16.48;9.18;;;;;;;4.59;88.99;97806.09;4986600;28;20660;-65
2020/12/16 01:57:08;;;;;;;14.00;7.38;;;;;;;3.43;94.38;97768.03;4986385;28;20038;-63
2020/12/16 01:59:38;;;;;;;13.35;7.35;;;;;;;3.76;94.73;97805.88;4986868;28;20030;-63
2020/12/16 02:02:07;;;;;;;15.52;7.30;;;;;;;3.97;94.23;97804.31;4986265;28;20073;-62
2020/12/16 02:04:38;;;;;;;12.50;6.93;;;;;;;3.60;94.10;97729.84;4986634;28;20113;-62
2020/12/16 02:07:07;;;;;;;10.55;6.13;;;;;;;3.71;95.26;97805.19;4986542;28;20121;-62
2020/12/16 02:09:44;;;;;;;12.15;6.50;;;;;;;3.29;98.30;97808.28;4986492;28;20402;-63
2020/12/16 02:12:17;;;;;;;16.80;7.60;;;;;;;3.26;98.73;97812.44;4986328;28;20516;-62
2020/12/16 02:14:42;;;;;;;11.63;6.67;;;;;;;3.41;98.15;97806.66;4986560;28;20026;-62
2020/12/16 02:17:09;;;;;;;11.80;6.00;;;;;;;3.66;96.71;97797.91;4984466;28;20049;-62
2020/12/16 02:19:53;;;;;;;13.25;6.47;;;;;;;3.12;95.95;97704.88;4986057;28;20045;-63
2020/12/16 02:22:18;;;;;;;11.32;6.00;;;;;;;3.80;95.71;97809.63;4986176;28;20038;-62
2020/12/16 02:25:05;;;;;;;11.07;6.07;;;;;;;3.78;95.84;97811.88;4985787;28;20038;-62
2020/12/16 02:27:31;;;;;;;13.15;6.50;;;;;;;3.94;94.77;97810.41;4986077;28;20421;-63
2020/12/16 02:29:57;;;;;;;13.88;7.55;;;;;;;3.92;94.76;97801.69;4985722;28;20052;-61
2020/12/16 02:32:26;;;;;;;11.98;6.70;;;;;;;3.99;93.16;97791.13;4984007;28;20961;-62
2020/12/16 02:34:52;;;;;;;15.55;8.23;;;;;;;3.85;93.74;97773.91;4984310;28;20746;-61
2020/12/16 02:37:18;;;;;;;17.88;9.35;;;;;;;4.10;93.74;97808.94;4985930;28;20517;-60
2020/12/16 02:39:44;;;;;;;21.23;12.95;;;;;;;4.09;92.93;97810.06;4984337;28;20027;-63
2020/12/16 02:42:09;;;;;;;23.70;13.85;;;;;;;4.16;92.56;97807.69;4985318;28;20093;-61
2020/12/16 02:44:35;;;;;;;32.47;14.10;;;;;;;4.10;92.49;97788.94;4985693;28;20026;-63
2020/12/16 02:47:02;;;;;;;21.23;11.98;;;;;;;3.37;91.36;97668.75;4983856;28;20399;-61
2020/12/16 02:49:28;;;;;;;20.50;12.05;;;;;;;4.33;91.87;97812.53;4984184;28;20081;-61
2020/12/16 02:51:54;;;;;;;26.40;14.20;;;;;;;4.19;91.87;97768.69;4985684;28;20038;-61
2020/12/16 02:54:21;;;;;;;26.05;13.85;;;;;;;4.01;90.94;97745.03;4985114;28;20038;-61
2020/12/16 02:56:51;;;;;;;24.25;12.30;;;;;;;4.47;90.39;97814.06;4985649;28;20046;-62
2020/12/16 02:59:20;;;;;;;25.55;13.07;;;;;;;4.51;90.42;97819.72;4985456;28;20023;-62
2020/12/16 03:01:48;;;;;;;28.08;14.18;;;;;;;4.54;89.90;97810.88;4985619;28;20038;-62
2020/12/16 03:04:14;;;;;;;25.30;13.88;;;;;;;3.90;91.47;97772.97;4985847;28;20119;-61
2020/12/16 03:06:39;;;;;;;29.98;15.50;;;;;;;3.49;95.31;97814.16;4985455;28;20042;-62
2020/12/16 03:09:05;;;;;;;27.55;15.52;;;;;;;3.04;96.00;97716.56;4980505;28;20126;-61
2020/12/16 03:11:30;;;;;;;27.90;14.57;;;;;;;3.91;94.61;97822.00;4965947;28;20042;-62
2020/12/16 03:13:56;;;;;;;32.42;15.40;;;;;;;3.97;94.32;97809.78;4965840;28;20186;-61
2020/12/16 03:16:21;;;;;;;30.23;17.33;;;;;;;3.77;95.30;97771.06;4965706;28;20512;-62
2020/12/16 03:18:47;;;;;;;43.58;20.92;;;;;;;4.18;94.91;97824.66;4964352;28;20039;-62
2020/12/16 03:21:20;;;;;;;39.53;18.83;;;;;;;3.84;94.25;97761.31;4965853;28;20042;-62
2020/12/16 03:23:45;;;;;;;36.47;17.20;;;;;;;3.88;94.79;97764.25;4965719;28;20096;-62
2020/12/16 03:26:11;;;;;;;25.63;15.23;;;;;;;4.29;95.15;97833.44;4965603;28;20046;-63
2020/12/16 03:28:37;;;;;;;27.05;14.85;;;;;;;4.43;93.85;97826.78;4965540;28;20316;-62
2020/12/16 03:31:02;;;;;;;28.50;16.77;;;;;;;4.34;93.35;97828.66;4965622;28;20089;-62
2020/12/16 03:33:27;;;;;;;25.95;15.18;;;;;;;4.21;94.12;97810.31;4965584;28;20037;-62
2020/12/16 03:35:53;;;;;;;30.55;17.90;;;;;;;4.03;94.78;97794.84;4965945;28;20032;-63
2020/12/16 03:38:18;;;;;;;38.13;22.00;;;;;;;4.43;93.64;97829.53;4964142;28;20469;-62
2020/12/16 03:40:44;;;;;;;42.03;22.55;;;;;;;4.43;93.51;97856.94;4965387;28;20030;-62
2020/12/16 03:43:09;;;;;;;39.42;22.02;;;;;;;4.59;92.92;97833.53;4965673;28;21169;-62
2020/12/16 03:45:34;;;;;;;39.00;21.08;;;;;;;4.22;93.04;97779.03;4965374;28;20425;-63
2020/12/16 03:48:00;;;;;;;43.38;21.65;;;;;;;4.48;92.05;97821.19;4966311;28;20047;-62
2020/12/16 03:50:25;;;;;;;42.63;23.15;;;;;;;4.63;92.41;97834.50;4969607;28;20034;-62
2020/12/16 03:52:50;;;;;;;47.03;24.52;;;;;;;4.54;93.08;97833.63;4982160;28;20069;-63
2020/12/16 03:55:16;;;;;;;49.50;24.27;;;;;;;4.66;93.53;97835.81;4988941;28;20066;-63
2020/12/16 03:57:41;;;;;;;40.47;23.83;;;;;;;4.47;92.61;97797.59;4989051;28;20041;-62
2020/12/16 04:00:10;;;;;;;42.72;22.90;;;;;;;4.73;92.17;97835.38;4989031;28;20037;-62
2020/12/16 04:02:37;;;;;;;39.55;22.75;;;;;;;4.72;92.73;97844.72;4987383;28;20093;-62
2020/12/16 04:05:04;;;;;;;43.20;23.08;;;;;;;4.03;92.86;97737.28;4988636;28;20030;-62
2020/12/16 04:07:29;;;;;;;38.67;22.38;;;;;;;4.84;91.54;97839.50;4988867;28;20038;-62
2020/12/16 04:09:55;;;;;;;39.63;22.10;;;;;;;4.76;92.20;97840.25;4988134;28;20493;-62
2020/12/16 04:12:20;;;;;;;47.63;22.63;;;;;;;4.30;92.65;97780.25;4986809;28;20065;-62
2020/12/16 04:14:45;;;;;;;37.38;22.08;;;;;;;4.73;93.10;97843.63;4988596;28;20027;-64
2020/12/16 04:17:11;;;;;;;41.10;21.88;;;;;;;4.74;93.54;97842.47;4988379;28;20097;-62
2020/12/16 04:19:36;;;;;;;36.58;23.55;;;;;;;4.91;92.59;97843.41;4986826;28;20034;-62
2020/12/16 04:22:02;;;;;;;47.15;25.42;;;;;;;4.93;92.91;97854.06;4986700;28;20129;-61
2020/12/16 04:24:28;;;;;;;44.97;24.30;;;;;;;4.97;91.61;97846.81;4988258;28;20121;-62
2020/12/16 04:26:53;;;;;;;47.35;25.35;;;;;;;4.57;91.72;97802.84;4986553;28;20101;-63
2020/12/16 04:29:19;;;;;;;46.35;25.63;;;;;;;4.62;93.53;97827.41;4986457;28;20053;-62
2020/12/16 04:31:48;;;;;;;54.42;27.30;;;;;;;4.83;94.05;97848.81;4986472;28;20046;-62
2020/12/16 04:34:13;;;;;;;52.75;27.33;;;;;;;4.93;92.32;97854.06;4986220;28;20053;-62
2020/12/16 04:36:40;;;;;;;48.80;26.67;;;;;;;4.43;93.42;97796.63;4987707;28;20034;-61
2020/12/16 04:39:06;;;;;;;79.30;36.47;;;;;;;4.82;93.65;97852.72;4986331;28;20030;-63
2020/12/16 04:41:31;;;;;;;231.38;96.25;;;;;;;4.89;93.35;97872.28;4988121;28;20112;-62
2020/12/16 04:43:59;;;;;;;160.00;62.63;;;;;;;4.81;92.59;97851.88;4987986;28;20034;-62
2020/12/16 04:46:31;;;;;;;122.15;49.28;;;;;;;4.89;93.11;97869.53;4986498;28;20062;-64
2020/12/16 04:48:57;;;;;;;100.65;37.20;;;;;;;4.16;94.85;97829.63;4986139;28;20058;-63
2020/12/16 04:51:24;;;;;;;49.22;23.63;;;;;;;4.52;96.68;97876.22;4986207;28;20077;-63
2020/12/16 04:53:53;;;;;;;42.80;22.42;;;;;;;4.25;97.12;97877.13;4986969;28;20041;-63
2020/12/16 04:56:19;;;;;;;46.55;22.25;;;;;;;4.11;98.73;97853.63;4987263;28;20045;-64
2020/12/16 04:58:45;;;;;;;38.60;20.48;;;;;;;3.95;98.41;97820.25;4987361;28;20496;-63
2020/12/16 05:01:10;;;;;;;39.45;21.98;;;;;;;4.41;98.33;97881.13;4985859;28;20100;-62
2020/12/16 05:03:36;;;;;;;37.90;21.35;;;;;;;4.34;97.71;97874.47;4986072;28;20034;-63
2020/12/16 05:06:02;;;;;;;36.50;19.92;;;;;;;4.42;97.50;97887.44;4987173;28;20038;-62
2020/12/16 05:08:28;;;;;;;40.83;22.50;;;;;;;4.23;97.74;97857.44;4987922;28;20113;-63
2020/12/16 05:10:54;;;;;;;37.22;21.85;;;;;;;4.48;97.47;97889.75;4985477;28;20409;-62
2020/12/16 05:13:21;;;;;;;38.05;20.92;;;;;;;4.55;96.32;97876.41;4987217;28;20092;-62
2020/12/16 05:15:48;;;;;;;37.60;19.17;;;;;;;4.59;96.03;97888.38;4987003;28;20401;-63
2020/12/16 05:18:22;;;;;;;39.70;21.58;;;;;;;4.53;96.89;97884.16;4985303;28;20042;-62
2020/12/16 05:20:59;;;;;;;38.53;21.65;;;;;;;4.50;97.07;97889.44;4987131;28;20038;-63
2020/12/16 05:23:27;;;;;;;42.10;21.85;;;;;;;4.52;97.36;97898.97;4987106;28;20034;-62
2020/12/16 05:26:10;;;;;;;47.63;25.35;;;;;;;4.52;97.93;97893.47;4987013;28;20572;-61
2020/12/16 05:28:40;;;;;;;;;;;;;;;4.60;97.64;97900.97;4985750;28;20445;-62
2020/12/16 05:31:08;;;;;;;50.08;23.65;;;;;;;4.43;98.11;97900.84;4986505;28;19999;-62
2020/12/16 05:33:43;;;;;;;46.08;23.85;;;;;;;4.20;97.04;97869.03;4986917;28;20026;-64
2020/12/16 05:36:10;;;;;;;45.75;23.48;;;;;;;4.70;97.33;97910.91;4987056;28;20069;-62
2020/12/16 05:38:56;;;;;;;45.00;23.90;;;;;;;4.76;96.57;97914.34;4986982;28;20030;-61
2020/12/16 05:41:32;;;;;;;49.92;25.45;;;;;;;4.50;97.23;97876.50;4985445;28;20131;-61
2020/12/16 05:44:20;;;;;;;52.55;25.98;;;;;;;4.74;96.96;97927.56;4985220;28;20030;-61
2020/12/16 05:46:50;;;;;;;55.08;24.95;;;;;;;4.68;96.81;97923.31;4984923;28;20039;-61
2020/12/16 05:49:27;;;;;;;51.63;27.00;;;;;;;4.79;97.01;97924.69;4986973;28;20179;-62
2020/12/16 05:52:00;;;;;;;56.88;26.75;;;;;;;4.66;97.28;97916.19;4986633;28;20125;-62
2020/12/16 05:54:26;;;;;;;55.20;27.52;;;;;;;4.96;95.40;97944.84;4986654;28;20053;-61
2020/12/16 05:57:29;;;;;;;75.57;36.70;;;;;;;5.01;95.72;97943.91;4986510;28;20054;-62
2020/12/16 06:00:10;;;;;;;75.87;37.23;;;;;;;4.96;95.63;97919.31;4984798;28;20125;-62
2020/12/16 06:02:39;;;;;;;72.32;35.65;;;;;;;4.97;95.76;97927.25;4986632;28;20496;-62
2020/12/16 06:05:10;;;;;;;82.57;38.10;;;;;;;4.99;96.02;97930.50;4985995;28;20029;-62
2020/12/16 06:07:39;;;;;;;66.60;35.38;;;;;;;1.88;95.39;97420.19;4986049;28;20121;-63
2020/12/16 06:10:06;;;;;;;218.95;100.43;;;;;;;5.07;95.81;97920.69;4984071;28;20035;-62
2020/12/16 06:12:32;;;;;;;104.80;48.72;;;;;;;5.00;94.66;97881.88;4984626;28;20042;-62
2020/12/16 06:15:08;;;;;;;109.18;50.72;;;;;;;5.02;94.65;97876.88;4986183;28;20117;-62
2020/12/16 06:17:37;;;;;;;89.90;44.67;;;;;;;5.06;93.44;97894.38;4986184;28;20117;-62
2020/12/16 06:20:04;;;;;;;87.20;44.20;;;;;;;5.44;93.19;97928.47;4984439;28;20034;-63
2020/12/16 06:22:34;;;;;;;98.20;51.80;;;;;;;5.39;94.35;97934.13;4984565;28;20042;-64
2020/12/16 06:25:04;;;;;;;100.85;54.70;;;;;;;5.37;94.82;97930.88;4983969;28;20130;-62
2020/12/16 06:27:37;;;;;;;104.53;55.45;;;;;;;5.38;95.46;97933.31;4982507;28;20038;-63
2020/12/16 06:30:06;;;;;;;161.68;82.65;;;;;;;5.27;93.78;97899.00;4983423;28;20056;-63
2020/12/16 06:32:42;;;;;;;134.63;74.35;;;;;;;5.11;93.58;97877.72;4983698;28;20046;-61
2020/12/16 06:35:13;;;;;;;93.53;50.22;;;;;;;4.47;94.01;97780.34;4985584;28;20053;-63
2020/12/16 06:37:38;;;;;;;95.43;51.30;;;;;;;5.50;94.50;97940.97;4985693;28;20034;-64
2020/12/16 06:40:04;;;;;;;108.90;54.92;;;;;;;5.51;93.85;97937.09;4985109;28;20041;-62
2020/12/16 06:42:32;;;;;;;98.10;52.20;;;;;;;5.11;93.78;97888.72;4985885;28;20035;-65
2020/12/16 06:45:16;;;;;;;96.13;50.42;;;;;;;5.00;93.60;97851.66;4985492;28;20030;-63
2020/12/16 06:47:45;;;;;;;104.85;53.97;;;;;;;4.78;93.25;97840.72;4985390;28;20129;-63
2020/12/16 06:50:19;;;;;;;104.25;54.50;;;;;;;5.46;92.52;97901.50;4985607;28;20042;-60
2020/12/16 06:52:45;;;;;;;106.53;56.45;;;;;;;5.75;93.31;97940.28;4985165;28;21145;-61
2020/12/16 06:55:10;;;;;;;101.95;53.88;;;;;;;5.68;92.95;97916.00;4982416;28;20177;-65
2020/12/16 06:57:47;;;;;;;98.40;51.95;;;;;;;5.27;92.38;97910.00;4985778;28;20054;-64
2020/12/16 07:00:23;;;;;;;88.35;47.83;;;;;;;5.57;91.25;97880.88;4985079;28;20026;-67
2020/12/16 07:02:51;;;;;;;62.25;35.80;;;;;;;5.14;89.72;97850.47;4983471;28;20121;-63
2020/12/16 07:05:36;;;;;;;65.20;35.40;;;;;;;5.98;90.25;98040.84;4985009;28;20026;-65
2020/12/16 07:08:02;;;;;;;72.60;40.17;;;;;;;5.52;91.50;97890.06;4983320;28;20226;-67
2020/12/16 07:10:44;;;;;;;78.97;41.35;;;;;;;3.76;90.53;97649.72;4983974;28;20026;-60
2020/12/16 07:13:14;;;;;;;77.32;38.10;;;;;;;6.20;88.77;97943.69;4983552;28;20049;-62
2020/12/16 07:15:45;;;;;;;69.22;38.88;;;;;;;6.21;89.24;97943.38;4985568;28;20037;-67
2020/12/16 07:18:27;;;;;;;60.42;31.50;;;;;;;6.24;88.50;97953.75;4984920;28;20109;-67
2020/12/16 07:21:19;;;;;;;55.97;28.65;;;;;;;6.18;89.50;97950.31;4984448;28;20054;-64
2020/12/16 07:23:47;;;;;;;45.90;24.35;;;;;;;6.01;89.17;97946.69;4990802;28;20057;-64
2020/12/16 07:26:27;;;;;;;47.67;25.88;;;;;;;5.60;88.95;97869.22;4987487;28;20087;-64
2020/12/16 07:28:53;;;;;;;40.75;22.40;;;;;;;5.90;89.13;97956.38;4986176;28;20533;-66
2020/12/16 07:31:19;;;;;;;47.38;24.05;;;;;;;5.59;90.02;97911.59;4987567;28;20353;-65
2020/12/16 07:33:45;;;;;;;50.58;24.83;;;;;;;5.43;91.30;97891.16;5007666;28;20072;-65
2020/12/16 07:36:11;;;;;;;47.72;25.02;;;;;;;6.14;88.93;97945.78;5000074;28;20909;-64
2020/12/16 07:38:37;;;;;;;70.80;37.33;;;;;;;6.16;89.75;97943.53;4987673;28;20417;-64
2020/12/16 07:41:03;;;;;;;70.43;39.22;;;;;;;5.96;91.05;97938.59;4988780;28;20038;-64
2020/12/16 07:43:29;;;;;;;74.18;37.53;;;;;;;6.42;89.72;97946.34;4988892;28;20749;-65
2020/12/16 07:46:08;;;;;;;74.97;37.60;;;;;;;6.55;88.36;97950.88;4988564;28;20023;-63
2020/12/16 07:48:36;;;;;;;78.78;39.22;;;;;;;6.38;88.58;97957.16;4987002;28;20112;-62
2020/12/16 07:51:11;;;;;;;76.20;39.05;;;;;;;6.48;88.18;97951.34;4986795;28;20141;-62
2020/12/16 07:53:44;;;;;;;77.28;40.80;;;;;;;6.42;88.70;97940.84;4987340;28;20057;-62
2020/12/16 07:56:09;;;;;;;76.05;38.35;;;;;;;4.35;88.25;97604.56;4987066;28;20038;-62
2020/12/16 07:58:35;;;;;;;65.95;36.45;;;;;;;6.45;88.22;97935.47;4988544;28;20417;-65
2020/12/16 08:01:08;;;;;;;63.03;35.47;;;;;;;6.35;87.80;97913.78;4988459;28;22369;-62
2020/12/16 08:03:35;;;;;;;67.88;33.13;;;;;;;6.61;88.15;97949.59;4986048;28;20038;-69
2020/12/16 08:06:00;;;;;;;58.72;32.80;;;;;;;5.65;88.12;97814.13;4987991;28;20112;-65
2020/12/16 08:08:26;;;;;;;59.65;31.40;;;;;;;6.41;86.52;97890.47;4987680;28;20494;-63
2020/12/16 08:10:51;;;;;;;66.68;34.55;;;;;;;6.67;88.10;97962.06;4987556;28;20136;-64
2020/12/16 08:13:26;;;;;;;58.20;33.10;;;;;;;6.55;87.82;97918.66;4986193;28;20474;-67
2020/12/16 08:16:03;;;;;;;74.65;37.47;;;;;;;6.96;86.53;97964.97;4981902;28;20030;-63
2020/12/16 08:18:28;;;;;;;74.50;40.38;;;;;;;6.96;86.44;97963.03;4970628;28;20481;-62
2020/12/16 08:20:54;;;;;;;62.13;32.78;;;;;;;6.90;86.53;97961.59;4985412;28;20035;-62
2020/12/16 08:23:19;;;;;;;106.10;54.00;;;;;;;6.71;87.06;97961.09;4985026;28;20092;-62
2020/12/16 08:25:45;;;;;;;87.00;45.67;;;;;;;6.66;86.97;97911.69;4985004;28;20067;-64
2020/12/16 08:28:10;;;;;;;76.57;41.22;;;;;;;6.52;85.81;97883.53;4986452;28;20034;-64
2020/12/16 08:30:39;;;;;;;62.75;35.88;;;;;;;6.57;86.13;97875.09;4986267;28;20049;-63
2020/12/16 08:33:15;;;;;;;66.05;33.97;;;;;;;6.86;86.51;97935.03;4986644;28;20406;-63
2020/12/16 08:35:48;;;;;;;76.25;42.28;;;;;;;7.16;86.79;97965.13;4985482;28;20476;-62
2020/12/16 08:38:18;;;;;;;58.17;32.70;;;;;;;7.22;84.98;97961.06;4987212;28;20075;-63
2020/12/16 08:40:47;;;;;;;56.70;32.55;;;;;;;7.21;85.65;97953.13;4969875;28;20037;-63
2020/12/16 08:43:17;;;;;;;54.30;28.92;;;;;;;7.16;84.76;97956.84;4986386;28;20037;-61
2020/12/16 08:45:43;;;;;;;61.45;32.42;;;;;;;7.25;86.09;97949.41;4985588;28;20037;-61
2020/12/16 08:48:09;;;;;;;63.90;34.17;;;;;;;6.83;85.61;97870.38;4987644;28;20057;-62
2020/12/16 08:50:35;;;;;;;64.15;36.03;;;;;;;7.50;84.69;97950.47;4985638;28;20421;-60
2020/12/16 08:53:00;;;;;;;85.30;40.30;;;;;;;7.40;84.64;97935.09;4987337;28;20137;-63
2020/12/16 08:55:26;;;;;;;63.53;33.65;;;;;;;7.42;84.73;97932.84;4985061;28;20126;-60
2020/12/16 08:57:53;;;;;;;68.05;36.30;;;;;;;7.16;85.03;97885.22;4987041;28;20529;-65
2020/12/16 09:00:26;;;;;;;54.28;29.88;;;;;;;7.68;84.20;97952.06;5000817;28;20442;-62
2020/12/16 09:03:03;;;;;;;51.28;26.17;;;;;;;7.79;83.72;97949.75;5014463;28;20039;-60
2020/12/16 09:05:29;;;;;;;54.40;29.67;;;;;;;7.49;83.33;97949.66;4987025;28;20034;-62
2020/12/16 09:08:04;;;;;;;47.53;25.17;;;;;;;7.38;83.92;97942.88;4982028;28;20073;-64
2020/12/16 09:10:29;;;;;;;53.22;29.73;;;;;;;6.84;84.53;97844.47;4980723;28;20486;-63
2020/12/16 09:12:55;;;;;;;54.58;32.13;;;;;;;7.62;84.83;97951.41;4981425;28;20117;-62
2020/12/16 09:15:20;;;;;;;48.13;26.75;;;;;;;7.06;83.11;97885.59;4986283;28;20611;-64
2020/12/16 09:17:53;;;;;;;70.88;35.35;;;;;;;7.49;85.34;97949.66;4986222;28;20046;-65
2020/12/16 09:20:18;;;;;;;79.50;36.58;;;;;;;7.58;84.27;97952.41;4987049;28;20533;-62
2020/12/16 09:22:53;;;;;;;56.58;29.95;;;;;;;7.19;83.54;97939.66;4986983;28;20045;-61
2020/12/16 09:25:20;;;;;;;41.90;22.85;;;;;;;6.55;88.73;97926.09;4985495;28;20043;-63
2020/12/16 09:27:51;;;;;;;52.28;26.40;;;;;;;6.27;91.57;97922.84;4986580;28;20402;-64
2020/12/16 09:30:30;;;;;;;48.38;25.10;;;;;;;5.91;93.61;97936.00;4985336;28;20108;-64
2020/12/16 09:32:56;;;;;;;47.42;24.27;;;;;;;6.05;94.20;97933.94;4986274;28;20485;-64
2020/12/16 09:35:24;;;;;;;70.93;31.35;;;;;;;5.08;95.14;97774.03;4984949;28;20033;-63
2020/12/16 09:37:49;;;;;;;68.15;33.95;;;;;;;6.55;93.52;97918.66;4986821;28;20519;-62
2020/12/16 09:40:18;;;;;;;51.85;25.30;;;;;;;6.14;91.01;97857.75;4986225;28;20113;-66
2020/12/16 09:42:59;;;;;;;47.35;24.30;;;;;;;6.44;91.93;97950.38;4991326;28;20065;-64
2020/12/16 09:45:24;;;;;;;44.63;23.98;;;;;;;6.61;92.91;97936.63;4985444;28;20065;-64
2020/12/16 09:47:52;;;;;;;59.28;29.65;;;;;;;6.29;91.08;97813.28;4986967;28;20489;-64
2020/12/16 09:50:26;;;;;;;57.38;29.20;;;;;;;7.12;89.61;97895.28;4986131;28;20034;-63
2020/12/16 09:53:06;;;;;;;53.40;25.83;;;;;;;7.60;87.25;97917.06;4985981;28;20096;-62
2020/12/16 09:55:39;;;;;;;42.85;23.17;;;;;;;7.80;85.36;97915.50;4984974;28;20026;-65
2020/12/16 09:58:09;;;;;;;43.83;23.77;;;;;;;7.91;84.29;97917.56;4986359;28;20042;-66
2020/12/16 10:00:36;;;;;;;44.55;23.35;;;;;;;7.00;84.84;97782.22;4985602;28;20037;-68
2020/12/16 10:03:18;;;;;;;45.33;25.15;;;;;;;7.71;83.70;97863.94;4983864;28;20073;-66
2020/12/16 10:05:44;;;;;;;51.55;26.77;;;;;;;8.05;83.38;97904.34;4983991;28;20428;-63
2020/12/16 10:08:14;;;;;;;45.63;23.13;;;;;;;8.19;83.33;97902.16;4985501;28;20239;-66
2020/12/16 10:10:40;;;;;;;55.17;31.10;;;;;;;5.74;82.68;97510.69;4985794;28;20034;-63
2020/12/16 10:13:06;;;;;;;40.10;23.95;;;;;;;8.22;82.21;97900.69;4985388;28;20152;-63
2020/12/16 10:15:31;;;;;;;39.88;21.33;;;;;;;7.98;82.61;97850.84;4985893;28;20030;-68
2020/12/16 10:17:58;;;;;;;43.80;23.48;;;;;;;8.35;82.13;97905.16;4985599;28;20122;-64
2020/12/16 10:20:24;;;;;;;38.55;20.17;;;;;;;8.29;81.79;97898.22;4982192;28;20026;-64
2020/12/16 10:22:50;;;;;;;38.70;20.30;;;;;;;8.34;81.49;97892.50;4983000;28;20042;-63
2020/12/16 10:25:15;;;;;;;41.28;22.00;;;;;;;8.22;81.43;97851.03;4984118;28;20042;-66
2020/12/16 10:27:41;;;;;;;39.25;22.00;;;;;;;8.11;80.90;97871.88;4983898;28;20417;-68
2020/12/16 10:30:07;;;;;;;39.28;20.55;;;;;;;8.26;80.37;97882.34;4984803;28;20599;-64
2020/12/16 10:32:34;;;;;;;30.00;17.45;;;;;;;8.38;79.94;97888.75;4983940;28;20499;-64
2020/12/16 10:35:15;;;;;;;42.10;20.23;;;;;;;8.29;79.55;97848.53;4975368;28;20575;-65
2020/12/16 10:37:40;;;;;;;25.98;14.15;;;;;;;8.55;77.81;97883.09;5005425;28;20423;-64
2020/12/16 10:40:09;;;;;;;23.90;14.73;;;;;;;7.72;75.55;97759.97;4996881;28;20034;-63
2020/12/16 10:42:34;;;;;;;22.23;13.30;;;;;;;5.08;76.74;97323.78;4983629;28;20527;-62
2020/12/16 10:45:00;;;;;;;26.42;12.82;;;;;;;7.70;77.02;97785.13;4985639;28;20034;-60
2020/12/16 10:47:25;;;;;;;26.27;14.73;;;;;;;8.46;76.44;97867.72;4984564;28;20501;-64
2020/12/16 10:49:51;;;;;;;34.65;17.73;;;;;;;8.51;75.80;97873.06;4980861;28;20050;-64
2020/12/16 10:52:16;;;;;;;20.27;10.60;;;;;;;7.96;75.61;97779.44;4985375;28;20121;-62
2020/12/16 10:54:42;;;;;;;19.48;10.48;;;;;;;7.99;75.23;97786.25;4983718;28;20100;-63
2020/12/16 10:57:08;;;;;;;24.67;12.65;;;;;;;7.90;76.44;97775.28;4985228;28;20049;-63
2020/12/16 10:59:33;;;;;;;21.65;12.25;;;;;;;8.43;76.50;97857.38;4984004;28;20113;-64
2020/12/16 11:01:59;;;;;;;20.10;10.98;;;;;;;7.61;76.58;97717.41;4983521;28;20136;-63
2020/12/16 11:04:27;;;;;;;22.25;11.05;;;;;;;8.36;76.24;97851.59;4985219;28;20030;-65
2020/12/16 11:06:53;;;;;;;23.55;13.73;;;;;;;8.36;76.89;97857.13;4999942;28;20564;-63
2020/12/16 11:09:19;;;;;;;18.88;10.15;;;;;;;8.27;76.13;97820.47;4985560;28;20031;-63
2020/12/16 11:11:47;;;;;;;19.20;9.77;;;;;;;8.39;74.91;97823.31;4982866;28;20050;-65
2020/12/16 11:14:13;;;;;;;23.98;11.98;;;;;;;8.14;75.07;97794.72;4983468;28;20409;-66
2020/12/16 11:16:40;;;;;;;25.25;14.07;;;;;;;8.41;76.05;97843.13;4982282;28;20041;-65
2020/12/16 11:19:07;;;;;;;26.40;14.55;;;;;;;8.47;76.53;97896.97;4983139;28;20026;-67
2020/12/16 11:21:43;;;;;;;24.88;12.80;;;;;;;8.41;77.86;97848.63;4980518;28;20034;-66
2020/12/16 11:24:10;;;;;;;55.70;26.40;;;;;;;8.08;77.49;97817.34;4975623;28;20030;-64
2020/12/16 11:26:37;;;;;;;38.85;19.30;;;;;;;8.44;77.64;97847.97;4995022;28;20088;-66
2020/12/16 11:29:04;;;;;;;27.80;15.35;;;;;;;7.88;77.39;97762.94;4981263;28;20132;-64
2020/12/16 11:31:30;;;;;;;22.58;13.68;;;;;;;8.34;78.52;97842.84;4981958;28;20130;-66